createdAt,value
2017-12-25T00:00:42.347Z,0
2017-12-25T00:01:11.172Z,0
2017-12-25T00:01:40.245Z,0
2017-12-25T00:02:23.302Z,0
2017-12-25T00:02:51.557Z,0
2017-12-25T00:03:50.636Z,0
2017-12-25T00:04:19.953Z,0
2017-12-25T00:04:48.736Z,0
2017-12-25T00:05:36.332Z,0
2017-12-25T00:06:48.717Z,0
2017-12-25T00:08:21.283Z,0
2017-12-25T00:08:49.516Z,0
2017-12-25T00:09:17.549Z,0
2017-12-25T00:10:16.249Z,0
2017-12-25T00:10:44.808Z,0
2017-12-25T00:12:39.553Z,0
2017-12-25T00:13:50.876Z,0
2017-12-25T00:14:19.820Z,0
2017-12-25T00:14:49.732Z,0
2017-12-25T00:15:17.728Z,0
2017-12-25T00:16:15.303Z,0
2017-12-25T00:16:43.216Z,0
2017-12-25T00:19:39.262Z,0
2017-12-25T00:20:07.722Z,0
2017-12-25T00:20:50.263Z,0
2017-12-25T00:21:18.710Z,0
2017-12-25T00:21:47.939Z,0
2017-12-25T00:22:16.812Z,0
2017-12-25T00:22:49.854Z,0
2017-12-25T00:23:32.986Z,0
2017-12-25T00:24:02.361Z,0
2017-12-25T00:24:31.656Z,0
2017-12-25T00:25:00.429Z,0
2017-12-25T00:25:29.974Z,0
2017-12-25T00:25:59.146Z,0
2017-12-25T00:26:28.270Z,0
2017-12-25T00:28:02.092Z,0
2017-12-25T00:28:31.228Z,0
2017-12-25T00:28:59.661Z,0
2017-12-25T00:31:51.302Z,0
2017-12-25T00:32:19.337Z,0
2017-12-25T00:33:45.630Z,0
2017-12-25T00:34:14.495Z,0
2017-12-25T00:34:42.623Z,0
2017-12-25T00:35:11.098Z,0
2017-12-25T00:35:40.548Z,0
2017-12-25T00:36:08.987Z,0
2017-12-25T00:36:37.402Z,0
2017-12-25T00:37:21.246Z,0
2017-12-25T00:37:49.576Z,0
2017-12-25T00:38:33.254Z,0
2017-12-25T00:39:04.116Z,0
2017-12-25T00:39:33.564Z,0
2017-12-25T00:40:01.603Z,0
2017-12-25T00:41:56.270Z,0
2017-12-25T00:42:25.001Z,0
2017-12-25T00:42:54.121Z,0
2017-12-25T00:43:22.790Z,0
2017-12-25T00:44:34.193Z,0
2017-12-25T00:45:02.195Z,0
2017-12-25T00:45:30.870Z,0
2017-12-25T00:46:15.032Z,0
2017-12-25T00:46:44.888Z,0
2017-12-25T00:47:28.655Z,0
2017-12-25T00:50:21.161Z,0
2017-12-25T00:51:05.632Z,0
2017-12-25T00:52:02.860Z,0
2017-12-25T00:52:45.912Z,0
2017-12-25T00:53:42.894Z,0
2017-12-25T00:54:11.831Z,0
2017-12-25T00:55:10.635Z,0
2017-12-25T00:55:39.068Z,0
2017-12-25T00:56:07.310Z,0
2017-12-25T00:56:35.956Z,0
2017-12-25T00:57:04.696Z,0
2017-12-25T00:57:32.620Z,0
2017-12-25T00:58:02.009Z,0
2017-12-25T01:00:54.793Z,0
2017-12-25T01:02:06.278Z,0
2017-12-25T01:03:19.308Z,0
2017-12-25T01:07:09.551Z,0
2017-12-25T01:07:41.227Z,0
2017-12-25T01:08:10.460Z,0
2017-12-25T01:08:54.836Z,0
2017-12-25T01:09:24.724Z,0
2017-12-25T01:11:20.420Z,0
2017-12-25T01:12:04.981Z,0
2017-12-25T01:12:47.947Z,0
2017-12-25T01:13:19.063Z,0
2017-12-25T01:14:02.413Z,0
2017-12-25T01:14:31.809Z,0
2017-12-25T01:16:12.396Z,0
2017-12-25T01:17:11.676Z,0
2017-12-25T01:18:09.520Z,0
2017-12-25T01:19:07.729Z,0
2017-12-25T01:20:05.797Z,0
2017-12-25T01:21:04.676Z,0
2017-12-25T01:21:48.299Z,0
2017-12-25T01:22:17.663Z,0
2017-12-25T01:22:46.883Z,0
2017-12-25T01:23:14.903Z,0
2017-12-25T01:25:11.482Z,0
2017-12-25T01:25:54.590Z,0
2017-12-25T01:26:53.391Z,0
2017-12-25T01:27:36.401Z,0
2017-12-25T01:28:33.458Z,0
2017-12-25T01:29:01.728Z,0
2017-12-25T01:30:56.814Z,0
2017-12-25T01:31:40.036Z,0
2017-12-25T01:32:39.152Z,0
2017-12-25T01:33:36.351Z,0
2017-12-25T01:34:48.349Z,0
2017-12-25T01:35:31.873Z,0
2017-12-25T01:36:30.656Z,0
2017-12-25T01:37:13.358Z,0
2017-12-25T01:39:07.734Z,0
2017-12-25T01:39:55.644Z,0
2017-12-25T01:40:52.735Z,0
2017-12-25T01:41:50.762Z,0
2017-12-25T01:44:15.136Z,0
2017-12-25T01:45:28.475Z,0
2017-12-25T01:47:38.008Z,0
2017-12-25T01:48:20.550Z,0
2017-12-25T01:49:03.069Z,0
2017-12-25T01:53:48.172Z,0
2017-12-25T01:55:58.098Z,0
2017-12-25T01:57:10.021Z,0
2017-12-25T02:01:14.557Z,0
2017-12-25T02:02:12.832Z,0
2017-12-25T02:03:37.966Z,0
2017-12-25T02:06:16.796Z,0
2017-12-25T02:08:10.947Z,0
2017-12-25T02:09:37.583Z,0
2017-12-25T02:12:47.916Z,0
2017-12-25T02:13:16.562Z,0
2017-12-25T02:16:24.518Z,0
2017-12-25T02:17:23.299Z,0
2017-12-25T02:19:46.784Z,0
2017-12-25T02:21:27.807Z,0
2017-12-25T02:22:25.033Z,0
2017-12-25T02:23:08.879Z,0
2017-12-25T02:29:39.274Z,0
2017-12-25T02:30:38.124Z,0
2017-12-25T02:32:48.613Z,0
2017-12-25T02:34:14.939Z,0
2017-12-25T02:34:56.539Z,0
2017-12-25T02:35:39.487Z,0
2017-12-25T02:36:51.879Z,0
2017-12-25T02:37:34.935Z,0
2017-12-25T02:39:29.102Z,0
2017-12-25T02:42:49.463Z,0
2017-12-25T02:45:56.543Z,0
2017-12-25T02:49:17.749Z,0
2017-12-25T02:50:14.945Z,0
2017-12-25T02:51:55.167Z,0
2017-12-25T02:54:04.679Z,0
2017-12-25T02:54:34.089Z,0
2017-12-25T02:55:46.031Z,0
2017-12-25T02:56:44.383Z,0
2017-12-25T03:00:06.270Z,0
2017-12-25T03:00:49.045Z,0
2017-12-25T03:02:43.203Z,0
2017-12-25T03:03:55.950Z,0
2017-12-25T03:05:07.562Z,0
2017-12-25T03:06:19.161Z,0
2017-12-25T03:07:31.683Z,0
2017-12-25T03:08:01.156Z,0
2017-12-25T03:08:29.688Z,0
2017-12-25T03:09:26.744Z,0
2017-12-25T03:10:39.278Z,0
2017-12-25T03:11:09.012Z,0
2017-12-25T03:11:52.571Z,0
2017-12-25T03:12:22.431Z,0
2017-12-25T03:12:50.871Z,0
2017-12-25T03:13:48.374Z,0
2017-12-25T03:14:17.180Z,0
2017-12-25T03:14:45.969Z,0
2017-12-25T03:15:43.452Z,0
2017-12-25T03:16:11.384Z,0
2017-12-25T03:16:54.467Z,0
2017-12-25T03:20:59.205Z,0
2017-12-25T03:21:56.688Z,0
2017-12-25T03:22:53.763Z,0
2017-12-25T03:23:22.410Z,0
2017-12-25T03:24:34.213Z,0
2017-12-25T03:25:03.483Z,0
2017-12-25T03:27:27.467Z,0
2017-12-25T03:28:39.052Z,0
2017-12-25T03:30:19.910Z,0
2017-12-25T03:33:27.840Z,0
2017-12-25T03:34:39.629Z,0
2017-12-25T03:35:22.296Z,0
2017-12-25T03:36:19.367Z,0
2017-12-25T03:36:48.624Z,0
2017-12-25T03:41:21.958Z,0
2017-12-25T03:42:19.024Z,0
2017-12-25T03:42:48.420Z,0
2017-12-25T03:43:17.670Z,0
2017-12-25T03:45:28.457Z,0
2017-12-25T03:46:12.405Z,0
2017-12-25T03:47:24.005Z,0
2017-12-25T03:48:07.471Z,0
2017-12-25T03:49:05.284Z,0
2017-12-25T03:51:00.351Z,0
2017-12-25T03:55:33.430Z,0
2017-12-25T03:58:17.290Z,0
2017-12-25T03:58:59.826Z,0
2017-12-25T04:00:25.369Z,0
2017-12-25T04:01:22.452Z,0
2017-12-25T04:04:00.490Z,0
2017-12-25T04:04:58.690Z,0
2017-12-25T04:06:53.296Z,0
2017-12-25T04:10:01.140Z,0
2017-12-25T04:10:58.434Z,0
2017-12-25T04:11:42.074Z,0
2017-12-25T04:13:36.748Z,0
2017-12-25T04:14:48.346Z,0
2017-12-25T04:17:26.848Z,0
2017-12-25T04:22:43.982Z,0
2017-12-25T04:24:53.379Z,0
2017-12-25T04:28:50.833Z,0
2017-12-25T04:30:51.310Z,0
2017-12-25T04:31:19.779Z,0
2017-12-25T04:33:28.892Z,0
2017-12-25T04:35:10.097Z,0
2017-12-25T04:35:54.677Z,0
2017-12-25T04:36:24.845Z,0
2017-12-25T04:38:18.990Z,0
2017-12-25T04:42:09.054Z,0
2017-12-25T04:43:51.454Z,0
2017-12-25T04:46:00.532Z,0
2017-12-25T04:46:58.015Z,0
2017-12-25T04:49:51.668Z,0
2017-12-25T04:51:36.359Z,0
2017-12-25T04:56:42.132Z,0
2017-12-25T04:59:35.173Z,0
2017-12-25T05:00:32.584Z,0
2017-12-25T05:01:30.284Z,0
2017-12-25T05:03:10.135Z,0
2017-12-25T05:05:34.905Z,0
2017-12-25T05:10:23.101Z,0
2017-12-25T05:13:21.793Z,0
2017-12-25T05:14:05.098Z,0
2017-12-25T05:15:46.102Z,0
2017-12-25T05:20:50.573Z,0
2017-12-25T05:22:45.158Z,0
2017-12-25T05:23:28.155Z,0
2017-12-25T05:24:54.267Z,0
2017-12-25T05:27:19.676Z,0
2017-12-25T05:28:04.797Z,0
2017-12-25T05:31:15.704Z,0
2017-12-25T05:32:12.766Z,0
2017-12-25T05:33:41.879Z,0
2017-12-25T05:38:11.515Z,0
2017-12-25T05:38:40.242Z,0
2017-12-25T05:39:09.107Z,0
2017-12-25T05:40:21.126Z,0
2017-12-25T05:41:03.668Z,0
2017-12-25T05:44:44.394Z,0
2017-12-25T05:45:56.953Z,0
2017-12-25T05:49:11.463Z,0
2017-12-25T05:50:09.212Z,0
2017-12-25T05:50:52.282Z,0
2017-12-25T05:51:49.680Z,0
2017-12-25T05:52:47.541Z,0
2017-12-25T05:55:52.435Z,0
2017-12-25T05:57:18.396Z,0
2017-12-25T05:59:32.139Z,0
2017-12-25T06:01:13.015Z,0
2017-12-25T06:04:13.814Z,0
2017-12-25T06:05:11.693Z,0
2017-12-25T06:06:10.759Z,0
2017-12-25T06:07:22.354Z,0
2017-12-25T06:08:19.825Z,0
2017-12-25T06:15:33.936Z,0
2017-12-25T06:16:17.406Z,0
2017-12-25T06:17:29.320Z,0
2017-12-25T06:18:56.367Z,0
2017-12-25T06:19:40.140Z,0
2017-12-25T06:20:09.542Z,0
2017-12-25T06:20:53.108Z,0
2017-12-25T06:24:30.434Z,0
2017-12-25T06:26:54.826Z,0
2017-12-25T06:27:26.814Z,0
2017-12-25T06:28:38.314Z,0
2017-12-25T06:29:35.893Z,0
2017-12-25T06:30:21.941Z,0
2017-12-25T06:35:23.723Z,0
2017-12-25T06:35:52.950Z,0
2017-12-25T06:38:03.252Z,0
2017-12-25T06:39:14.852Z,0
2017-12-25T06:40:12.791Z,0
2017-12-25T06:41:10.198Z,0
2017-12-25T06:42:22.132Z,0
2017-12-25T06:43:49.870Z,0
2017-12-25T06:44:34.647Z,0
2017-12-25T06:45:46.213Z,0
2017-12-25T06:46:14.666Z,0
2017-12-25T06:47:26.258Z,0
2017-12-25T06:48:37.864Z,0
2017-12-25T06:49:05.891Z,0
2017-12-25T06:51:15.715Z,0
2017-12-25T06:51:44.898Z,0
2017-12-25T06:54:24.923Z,0
2017-12-25T06:56:06.457Z,0
2017-12-25T06:58:00.624Z,0
2017-12-25T06:58:57.703Z,0
2017-12-25T06:59:41.861Z,0
2017-12-25T07:00:54.306Z,0
2017-12-25T07:02:34.507Z,0
2017-12-25T07:04:43.909Z,0
2017-12-25T07:06:10.023Z,0
2017-12-25T07:07:19.739Z,0
2017-12-25T07:08:03.728Z,0
2017-12-25T07:08:46.263Z,0
2017-12-25T07:09:57.868Z,0
2017-12-25T07:11:11.430Z,0
2017-12-25T07:12:24.518Z,0
2017-12-25T07:12:52.444Z,0
2017-12-25T07:13:23.496Z,0
2017-12-25T07:14:07.466Z,0
2017-12-25T07:15:02.026Z,0
2017-12-25T07:15:31.469Z,0
2017-12-25T07:16:00.276Z,0
2017-12-25T07:16:57.832Z,0
2017-12-25T07:17:55.599Z,0
2017-12-25T07:18:26.066Z,0
2017-12-25T07:18:54.717Z,0
2017-12-25T07:19:41.584Z,0
2017-12-25T07:20:11.599Z,0
2017-12-25T07:20:39.948Z,0
2017-12-25T07:21:23.722Z,0
2017-12-25T07:21:51.746Z,0
2017-12-25T07:22:35.093Z,0
2017-12-25T07:23:03.123Z,0
2017-12-25T07:23:45.667Z,0
2017-12-25T07:25:41.388Z,0
2017-12-25T07:26:24.735Z,0
2017-12-25T07:27:08.079Z,0
2017-12-25T07:27:36.638Z,0
2017-12-25T07:28:04.565Z,0
2017-12-25T07:28:47.269Z,0
2017-12-25T07:29:18.309Z,0
2017-12-25T07:30:45.673Z,0
2017-12-25T07:31:14.897Z,0
2017-12-25T07:31:43.777Z,0
2017-12-25T07:33:10.377Z,0
2017-12-25T07:33:38.837Z,0
2017-12-25T07:34:07.259Z,0
2017-12-25T07:34:35.774Z,0
2017-12-25T07:35:03.701Z,0
2017-12-25T07:35:33.205Z,0
2017-12-25T07:36:02.214Z,0
2017-12-25T07:36:30.421Z,0
2017-12-25T07:36:59.456Z,0
2017-12-25T07:37:33.719Z,0
2017-12-25T07:39:28.343Z,0
2017-12-25T07:39:56.798Z,0
2017-12-25T07:40:27.574Z,0
2017-12-25T07:40:57.119Z,0
2017-12-25T07:41:56.620Z,0
2017-12-25T07:42:39.960Z,0
2017-12-25T07:44:03.181Z,0
2017-12-25T07:44:32.913Z,0
2017-12-25T07:45:31.024Z,0
2017-12-25T07:46:21.376Z,0
2017-12-25T07:46:50.842Z,0
2017-12-25T07:47:19.294Z,0
2017-12-25T07:47:47.300Z,0
2017-12-25T07:48:15.317Z,0
2017-12-25T07:48:44.199Z,0
2017-12-25T07:49:13.796Z,0
2017-12-25T07:49:42.026Z,0
2017-12-25T07:50:09.958Z,0
2017-12-25T07:50:52.728Z,0
2017-12-25T07:51:21.541Z,0
2017-12-25T07:51:53.431Z,0
2017-12-25T07:52:23.443Z,0
2017-12-25T07:53:07.519Z,0
2017-12-25T07:53:52.147Z,0
2017-12-25T07:55:03.107Z,0
2017-12-25T07:57:41.205Z,0
2017-12-25T07:58:10.395Z,4
2017-12-25T07:58:53.918Z,4
2017-12-25T07:59:22.463Z,4
2017-12-25T08:00:05.682Z,8
2017-12-25T08:00:33.941Z,4
2017-12-25T08:01:02.384Z,8
2017-12-25T08:02:01.685Z,8
2017-12-25T08:02:32.997Z,12
2017-12-25T08:03:02.447Z,12
2017-12-25T08:03:31.259Z,16
2017-12-25T08:04:14.595Z,16
2017-12-25T08:04:58.751Z,16
2017-12-25T08:06:24.853Z,24
2017-12-25T08:07:08.189Z,28
2017-12-25T08:07:36.218Z,28
2017-12-25T08:08:34.519Z,40
2017-12-25T08:09:03.990Z,44
2017-12-25T08:09:32.799Z,48
2017-12-25T08:10:01.252Z,52
2017-12-25T08:11:15.521Z,64
2017-12-25T08:11:56.314Z,76
2017-12-25T08:12:43.234Z,92
2017-12-25T08:13:11.937Z,104
2017-12-25T08:13:55.067Z,116
2017-12-25T08:14:23.975Z,128
2017-12-25T08:14:52.920Z,140
2017-12-25T08:15:20.825Z,152
2017-12-25T08:15:49.765Z,164
2017-12-25T08:16:17.668Z,172
2017-12-25T08:17:30.238Z,200
2017-12-25T08:17:58.270Z,208
2017-12-25T08:18:42.833Z,224
2017-12-25T08:19:12.175Z,240
2017-12-25T08:19:40.089Z,256
2017-12-25T08:20:08.121Z,272
2017-12-25T08:20:37.108Z,288
2017-12-25T08:21:06.641Z,304
2017-12-25T08:21:35.133Z,316
2017-12-25T08:22:17.606Z,340
2017-12-25T08:22:45.614Z,352
2017-12-25T08:23:28.585Z,384
2017-12-25T08:24:12.873Z,412
2017-12-25T08:24:40.790Z,436
2017-12-25T08:25:09.231Z,452
2017-12-25T08:25:41.884Z,476
2017-12-25T08:26:12.322Z,508
2017-12-25T08:27:25.422Z,580
2017-12-25T08:27:53.652Z,612
2017-12-25T08:28:36.626Z,660
2017-12-25T08:29:05.518Z,692
2017-12-25T08:31:01.186Z,828
2017-12-25T08:31:31.983Z,872
2017-12-25T08:32:00.811Z,912
2017-12-25T08:33:13.122Z,1020
2017-12-25T08:34:28.467Z,1136
2017-12-25T08:34:57.791Z,1184
2017-12-25T08:35:26.957Z,1228
2017-12-25T08:35:55.973Z,1280
2017-12-25T08:36:24.208Z,1324
2017-12-25T08:36:52.228Z,1372
2017-12-25T08:39:07.605Z,1560
2017-12-25T08:39:35.966Z,1600
2017-12-25T08:40:19.327Z,1660
2017-12-25T08:41:02.303Z,1720
2017-12-25T08:41:31.074Z,1760
2017-12-25T08:41:59.097Z,1796
2017-12-25T08:42:31.004Z,1840
2017-12-25T08:43:13.875Z,1900
2017-12-25T08:43:42.733Z,1940
2017-12-25T08:44:11.175Z,1976
2017-12-25T08:44:53.827Z,2040
2017-12-25T08:45:22.264Z,2084
2017-12-25T08:45:50.708Z,2128
2017-12-25T08:47:02.860Z,2244
2017-12-25T08:48:32.192Z,2452
2017-12-25T08:49:26.704Z,2600
2017-12-25T08:49:55.847Z,2656
2017-12-25T08:50:24.857Z,2676
2017-12-25T08:51:22.052Z,2632
2017-12-25T08:54:05.023Z,2820
2017-12-25T08:54:33.709Z,2852
2017-12-25T08:55:17.048Z,2904
2017-12-25T08:56:57.452Z,3028
2017-12-25T08:57:25.889Z,3072
2017-12-25T08:58:09.236Z,3184
2017-12-25T08:58:52.813Z,3312
2017-12-25T08:59:22.861Z,3304
2017-12-25T09:00:06.154Z,3232
2017-12-25T09:00:34.858Z,3228
2017-12-25T09:01:46.663Z,3280
2017-12-25T09:02:30.054Z,3312
2017-12-25T09:04:27.537Z,3456
2017-12-25T09:05:24.611Z,3540
2017-12-25T09:06:52.105Z,3664
2017-12-25T09:07:20.110Z,3704
2017-12-25T09:08:31.872Z,3808
2017-12-25T09:09:15.361Z,3872
2017-12-25T09:09:43.815Z,3916
2017-12-25T09:10:41.114Z,4012
2017-12-25T09:11:09.549Z,4072
2017-12-25T09:11:37.982Z,4124
2017-12-25T09:12:06.414Z,4180
2017-12-25T09:12:34.836Z,4276
2017-12-25T09:13:05.217Z,4488
2017-12-25T09:13:34.572Z,4912
2017-12-25T09:14:21.279Z,5832
2017-12-25T09:14:49.363Z,5764
2017-12-25T09:15:18.167Z,5444
2017-12-25T09:16:01.478Z,5628
2017-12-25T09:16:30.079Z,6396
2017-12-25T09:16:59.786Z,7128
2017-12-25T09:17:43.252Z,7512
2017-12-25T09:18:12.494Z,6920
2017-12-25T09:18:41.298Z,6236
2017-12-25T09:19:24.613Z,5488
2017-12-25T09:19:54.384Z,5212
2017-12-25T09:20:24.379Z,5276
2017-12-25T09:20:54.758Z,5468
2017-12-25T09:21:23.036Z,5704
2017-12-25T09:22:06.596Z,6348
2017-12-25T09:22:35.245Z,7192
2017-12-25T09:23:03.912Z,8052
2017-12-25T09:23:35.350Z,7512
2017-12-25T09:24:03.606Z,6192
2017-12-25T09:24:33.708Z,5592
2017-12-25T09:25:01.722Z,5452
2017-12-25T09:26:57.816Z,5508
2017-12-25T09:27:31.193Z,5580
2017-12-25T09:28:00.418Z,5676
2017-12-25T09:30:10.762Z,6364
2017-12-25T09:30:39.391Z,6776
2017-12-25T09:31:07.804Z,7288
2017-12-25T09:31:36.150Z,7584
2017-12-25T09:32:05.947Z,8220
2017-12-25T09:32:52.387Z,11088
2017-12-25T09:33:20.878Z,10752
2017-12-25T09:34:05.148Z,8708
2017-12-25T09:34:33.412Z,8224
2017-12-25T09:35:02.698Z,8144
2017-12-25T09:35:30.906Z,8412
2017-12-25T09:37:41.289Z,10148
2017-12-25T09:38:10.092Z,9688
2017-12-25T09:39:47.871Z,9264
2017-12-25T09:41:00.679Z,9480
2017-12-25T09:41:57.655Z,9704
2017-12-25T09:42:45.241Z,9860
2017-12-25T09:43:14.561Z,9944
2017-12-25T09:45:24.833Z,10340
2017-12-25T09:46:08.563Z,10652
2017-12-25T09:47:21.932Z,10484
2017-12-25T09:48:11.803Z,10472
2017-12-25T09:49:49.215Z,10792
2017-12-25T09:50:17.172Z,10916
2017-12-25T09:50:45.569Z,11032
2017-12-25T09:51:14.556Z,11180
2017-12-25T09:51:58.313Z,11592
2017-12-25T09:52:42.062Z,11720
2017-12-25T09:53:24.597Z,12112
2017-12-25T09:55:21.259Z,12204
2017-12-25T09:56:03.933Z,13328
2017-12-25T09:56:33.540Z,14132
2017-12-25T09:57:02.078Z,14452
2017-12-25T09:59:39.725Z,17536
2017-12-25T10:00:08.263Z,17568
2017-12-25T10:00:36.696Z,17248
2017-12-25T10:02:46.174Z,13032
2017-12-25T10:03:33.712Z,12420
2017-12-25T10:04:31.983Z,11776
2017-12-25T10:05:28.965Z,11856
2017-12-25T10:06:32.315Z,11812
2017-12-25T10:07:29.450Z,12264
2017-12-25T10:07:58.317Z,12792
2017-12-25T10:08:27.661Z,13880
2017-12-25T10:08:57.394Z,15816
2017-12-25T10:09:26.136Z,16260
2017-12-25T10:09:54.161Z,15828
2017-12-25T10:11:05.667Z,14188
2017-12-25T10:11:35.530Z,13388
2017-12-25T10:12:03.863Z,13212
2017-12-25T10:13:59.622Z,12992
2017-12-25T10:14:42.078Z,12636
2017-12-25T10:15:10.702Z,12476
2017-12-25T10:16:22.848Z,12404
2017-12-25T10:18:04.347Z,11820
2017-12-25T10:19:02.320Z,11628
2017-12-25T10:20:00.926Z,11276
2017-12-25T10:20:30.755Z,11148
2017-12-25T10:21:43.814Z,10720
2017-12-25T10:22:26.817Z,10616
2017-12-25T10:22:54.816Z,10684
2017-12-25T10:23:23.339Z,10804
2017-12-25T10:23:51.774Z,10956
2017-12-25T10:24:35.435Z,11092
2017-12-25T10:25:18.766Z,11140
2017-12-25T10:26:02.550Z,11056
2017-12-25T10:26:31.375Z,11044
2017-12-25T10:27:56.885Z,10984
2017-12-25T10:28:40.735Z,10468
2017-12-25T10:29:38.115Z,10048
2017-12-25T10:30:06.564Z,10060
2017-12-25T10:30:49.897Z,9692
2017-12-25T10:32:17.223Z,8804
2017-12-25T10:33:36.161Z,9028
2017-12-25T10:34:18.592Z,9340
2017-12-25T10:35:15.669Z,9264
2017-12-25T10:35:43.922Z,9116
2017-12-25T10:36:56.540Z,9608
2017-12-25T10:37:25.081Z,9924
2017-12-25T10:38:00.456Z,10204
2017-12-25T10:38:44.656Z,10324
2017-12-25T10:39:15.335Z,10416
2017-12-25T10:40:26.662Z,10728
2017-12-25T10:41:00.922Z,11144
2017-12-25T10:41:43.266Z,11652
2017-12-25T10:42:12.882Z,11924
2017-12-25T10:42:41.722Z,12144
2017-12-25T10:43:09.628Z,12356
2017-12-25T10:43:52.593Z,12576
2017-12-25T10:44:20.610Z,12704
2017-12-25T10:44:50.666Z,12768
2017-12-25T10:46:31.865Z,12752
2017-12-25T10:47:00.295Z,12744
2017-12-25T10:47:28.620Z,12748
2017-12-25T10:49:37.645Z,12868
2017-12-25T10:50:35.130Z,12844
2017-12-25T10:53:02.284Z,12964
2017-12-25T10:53:46.263Z,13060
2017-12-25T10:54:17.861Z,13136
2017-12-25T10:54:46.109Z,13196
2017-12-25T10:55:46.236Z,13320
2017-12-25T10:56:14.843Z,13372
2017-12-25T10:56:43.099Z,13424
2017-12-25T10:57:15.715Z,13388
2017-12-25T10:57:44.159Z,13400
2017-12-25T10:58:28.001Z,13480
2017-12-25T10:58:56.840Z,13576
2017-12-25T10:59:26.129Z,13788
2017-12-25T10:59:55.496Z,13944
2017-12-25T11:01:49.619Z,14132
2017-12-25T11:02:19.391Z,14124
2017-12-25T11:03:45.410Z,14064
2017-12-25T11:04:15.849Z,14096
2017-12-25T11:05:13.702Z,14480
2017-12-25T11:06:11.564Z,14672
2017-12-25T11:07:09.609Z,15072
2017-12-25T11:07:37.633Z,15356
2017-12-25T11:08:11.931Z,15556
2017-12-25T11:08:42.225Z,15684
2017-12-25T11:10:23.375Z,15564
2017-12-25T11:10:51.412Z,15408
2017-12-25T11:12:31.833Z,14732
2017-12-25T11:15:09.676Z,13500
2017-12-25T11:15:38.708Z,13308
2017-12-25T11:16:52.031Z,13172
2017-12-25T11:17:22.063Z,13324
2017-12-25T11:18:20.330Z,13884
2017-12-25T11:20:30.230Z,14576
2017-12-25T11:20:58.674Z,14632
2017-12-25T11:21:28.721Z,14540
2017-12-25T11:21:56.658Z,14444
2017-12-25T11:23:48.727Z,15400
2017-12-25T11:25:44.787Z,17728
2017-12-25T11:26:14.177Z,18144
2017-12-25T11:26:42.628Z,18496
2017-12-25T11:27:17.259Z,18752
2017-12-25T11:27:47.267Z,18944
2017-12-25T11:28:15.789Z,19104
2017-12-25T11:29:00.108Z,19360
2017-12-25T11:29:29.044Z,19520
2017-12-25T11:30:03.676Z,19744
2017-12-25T11:30:31.824Z,20000
2017-12-25T11:31:00.618Z,20352
2017-12-25T11:31:59.027Z,20800
2017-12-25T11:34:11.524Z,21344
2017-12-25T11:35:07.144Z,21568
2017-12-25T11:35:36.637Z,21664
2017-12-25T11:36:06.311Z,21824
2017-12-25T11:36:35.445Z,21952
2017-12-25T11:37:03.785Z,22048
2017-12-25T11:37:32.118Z,22176
2017-12-25T11:39:13.214Z,22720
2017-12-25T11:39:42.466Z,23072
2017-12-25T11:40:10.379Z,23552
2017-12-25T11:40:40.280Z,24992
2017-12-25T11:41:25.103Z,29344
2017-12-25T11:42:08.335Z,28032
2017-12-25T11:42:51.395Z,25952
2017-12-25T11:43:20.707Z,25440
2017-12-25T11:44:03.224Z,25088
2017-12-25T11:45:01.548Z,25056
2017-12-25T11:45:31.707Z,25280
2017-12-25T11:45:59.710Z,25536
2017-12-25T11:46:28.646Z,25216
2017-12-25T11:46:58.019Z,25024
2017-12-25T11:47:26.450Z,24960
2017-12-25T11:47:54.196Z,24864
2017-12-25T11:48:22.542Z,24800
2017-12-25T11:48:50.908Z,24800
2017-12-25T11:49:21.291Z,24928
2017-12-25T11:49:50.756Z,25024
2017-12-25T11:50:19.476Z,25216
2017-12-25T11:50:48.020Z,25472
2017-12-25T11:51:31.182Z,25984
2017-12-25T11:53:49.155Z,27872
2017-12-25T11:54:32.091Z,28736
2017-12-25T11:56:32.500Z,29472
2017-12-25T11:59:10.454Z,28768
2017-12-25T12:00:50.634Z,27392
2017-12-25T12:01:32.795Z,27072
2017-12-25T12:02:00.924Z,26592
2017-12-25T12:02:29.698Z,26272
2017-12-25T12:02:57.744Z,26048
2017-12-25T12:03:27.312Z,25792
2017-12-25T12:03:57.493Z,25568
2017-12-25T12:04:41.404Z,25728
2017-12-25T12:06:21.818Z,26528
2017-12-25T12:07:08.940Z,26656
2017-12-25T12:11:28.140Z,24256
2017-12-25T12:11:56.391Z,24256
2017-12-25T12:12:40.019Z,24800
2017-12-25T12:13:52.990Z,27456
2017-12-25T12:15:09.821Z,32768
2017-12-25T12:15:52.631Z,31200
2017-12-25T12:16:21.057Z,30880
2017-12-25T12:16:49.501Z,30432
2017-12-25T12:17:17.290Z,32224
2017-12-25T12:17:45.337Z,27424
2017-12-25T12:18:56.937Z,26016
2017-12-25T12:19:54.361Z,27008
2017-12-25T12:20:38.113Z,27584
2017-12-25T12:21:07.211Z,27872
2017-12-25T12:21:36.053Z,28224
2017-12-25T12:22:04.489Z,28480
2017-12-25T12:23:01.884Z,31264
2017-12-25T12:24:42.529Z,25984
2017-12-25T12:25:26.241Z,22624
2017-12-25T12:26:36.075Z,21184
2017-12-25T12:27:33.956Z,21632
2017-12-25T12:28:02.757Z,22176
2017-12-25T12:28:31.866Z,23328
2017-12-25T12:29:29.747Z,23680
2017-12-25T12:30:50.202Z,21472
2017-12-25T12:31:20.075Z,20192
2017-12-25T12:33:29.368Z,16456
2017-12-25T12:33:57.392Z,15852
2017-12-25T12:34:25.369Z,15356
2017-12-25T12:35:19.077Z,14908
2017-12-25T12:35:47.482Z,14980
2017-12-25T12:36:16.711Z,15260
2017-12-25T12:36:46.786Z,15732
2017-12-25T12:37:17.217Z,16400
2017-12-25T12:37:46.689Z,17248
2017-12-25T12:38:15.489Z,18112
2017-12-25T12:38:44.847Z,18944
2017-12-25T12:39:14.101Z,19776
2017-12-25T12:40:12.316Z,21472
2017-12-25T12:41:09.702Z,23072
2017-12-25T12:41:52.622Z,24256
2017-12-25T12:42:20.622Z,24832
2017-12-25T12:43:19.715Z,25248
2017-12-25T12:43:48.143Z,25120
2017-12-25T12:45:29.270Z,23680
2017-12-25T12:45:58.138Z,23232
2017-12-25T12:47:53.546Z,21920
2017-12-25T12:50:33.328Z,22368
2017-12-25T12:56:18.837Z,17248
2017-12-25T12:58:14.972Z,17664
2017-12-25T12:58:58.150Z,17856
2017-12-25T12:59:55.126Z,18176
2017-12-25T13:00:24.155Z,18400
2017-12-25T13:01:07.219Z,18464
2017-12-25T13:01:35.989Z,18400
2017-12-25T13:02:05.451Z,18080
2017-12-25T13:03:59.853Z,16576
2017-12-25T13:04:28.331Z,16260
2017-12-25T13:05:54.487Z,15124
2017-12-25T13:06:23.675Z,14788
2017-12-25T13:07:07.368Z,14416
2017-12-25T13:07:35.386Z,14200
2017-12-25T13:08:03.397Z,14020
2017-12-25T13:09:57.473Z,14332
2017-12-25T13:10:39.918Z,14520
2017-12-25T13:11:10.109Z,14728
2017-12-25T13:11:38.746Z,14936
2017-12-25T13:12:35.730Z,15372
2017-12-25T13:13:04.578Z,15596
2017-12-25T13:14:23.033Z,15824
2017-12-25T13:14:52.432Z,15932
2017-12-25T13:15:20.581Z,16020
2017-12-25T13:16:04.627Z,15916
2017-12-25T13:16:34.354Z,15872
2017-12-25T13:17:32.547Z,16220
2017-12-25T13:18:01.109Z,16692
2017-12-25T13:18:29.390Z,17536
2017-12-25T13:19:55.280Z,21312
2017-12-25T13:20:24.504Z,22880
2017-12-25T13:20:54.552Z,24320
2017-12-25T13:21:23.226Z,25312
2017-12-25T13:21:51.158Z,26208
2017-12-25T13:22:19.664Z,27200
2017-12-25T13:22:49.390Z,28448
2017-12-25T13:23:32.629Z,28576
2017-12-25T13:24:01.921Z,28320
2017-12-25T13:24:30.886Z,28000
2017-12-25T13:25:18.600Z,25472
2017-12-25T13:25:47.383Z,25120
2017-12-25T13:26:17.043Z,25536
2017-12-25T13:29:53.399Z,31968
2017-12-25T13:30:22.254Z,33760
2017-12-25T13:31:50.559Z,35200
2017-12-25T13:32:18.810Z,38688
2017-12-25T13:32:47.490Z,39392
2017-12-25T13:33:15.441Z,39360
2017-12-25T13:33:43.886Z,39648
2017-12-25T13:34:13.271Z,41344
2017-12-25T13:34:42.032Z,41760
2017-12-25T13:35:10.049Z,42016
2017-12-25T13:35:38.072Z,42144
2017-12-25T13:36:07.086Z,41504
2017-12-25T13:36:35.926Z,41280
2017-12-25T13:37:11.399Z,38368
2017-12-25T13:37:39.986Z,39936
2017-12-25T13:38:22.913Z,42592
2017-12-25T13:38:52.119Z,42560
2017-12-25T13:40:49.711Z,39616
2017-12-25T13:41:18.029Z,42208
2017-12-25T13:42:01.386Z,43424
2017-12-25T13:42:31.127Z,38528
2017-12-25T13:42:58.943Z,38304
2017-12-25T13:43:42.830Z,38336
2017-12-25T13:44:11.611Z,36704
2017-12-25T13:44:39.551Z,37632
2017-12-25T13:45:22.856Z,41184
2017-12-25T13:46:34.678Z,38592
2017-12-25T13:47:03.795Z,35968
2017-12-25T13:47:33.059Z,34016
2017-12-25T13:48:01.565Z,34240
2017-12-25T13:48:32.069Z,32000
2017-12-25T13:49:58.756Z,26368
2017-12-25T13:50:33.077Z,26176
2017-12-25T13:51:01.535Z,26336
2017-12-25T13:51:30.343Z,27104
2017-12-25T13:51:58.357Z,30688
2017-12-25T13:52:26.380Z,29440
2017-12-25T13:52:54.319Z,27936
2017-12-25T13:53:23.126Z,27072
2017-12-25T13:53:51.429Z,25344
2017-12-25T13:54:21.316Z,24928